createdAt,value
2022-10-05T00:00:57.764Z,100.00
2022-10-05T00:01:59.259Z,100.00
2022-10-05T00:03:10.715Z,100.00
2022-10-05T00:04:14.825Z,100.00
2022-10-05T00:05:25.030Z,100.00
2022-10-05T00:06:29.247Z,100.00
2022-10-05T00:07:30.842Z,100.00
2022-10-05T00:08:34.617Z,100.00
2022-10-05T00:09:36.034Z,100.00
2022-10-05T00:10:39.200Z,100.00
2022-10-05T00:11:40.940Z,100.00
2022-10-05T00:12:45.227Z,100.00
2022-10-05T00:13:46.684Z,100.00
2022-10-05T00:14:49.194Z,100.00
2022-10-05T00:15:57.986Z,100.00
2022-10-05T00:17:01.457Z,100.00
2022-10-05T00:18:12.727Z,100.00
2022-10-05T00:19:20.734Z,100.00
2022-10-05T00:20:25.267Z,100.00
2022-10-05T00:21:28.900Z,100.00
2022-10-05T00:22:32.951Z,100.00
2022-10-05T00:23:34.351Z,100.00
2022-10-05T00:24:35.704Z,100.00
2022-10-05T00:25:38.762Z,100.00
2022-10-05T00:26:40.175Z,100.00
2022-10-05T00:27:41.832Z,100.00
2022-10-05T00:28:43.272Z,100.00
2022-10-05T00:29:44.921Z,100.00
2022-10-05T00:30:46.822Z,100.00
2022-10-05T00:31:49.127Z,100.00
2022-10-05T00:32:50.650Z,100.00
2022-10-05T00:33:52.326Z,100.00
2022-10-05T00:34:54.058Z,100.00
2022-10-05T00:35:55.937Z,100.00
2022-10-05T00:36:58.350Z,100.00
2022-10-05T00:37:59.829Z,100.00
2022-10-05T00:39:01.883Z,100.00
2022-10-05T00:40:09.951Z,100.00
2022-10-05T00:41:33.464Z,100.00
2022-10-05T00:43:03.432Z,100.00
2022-10-05T00:44:36.764Z,100.00
2022-10-05T00:45:46.613Z,100.00
2022-10-05T00:47:06.240Z,100.00
2022-10-05T00:48:25.759Z,100.00
2022-10-05T00:49:48.963Z,100.00
2022-10-05T00:50:58.509Z,100.00
2022-10-05T00:52:13.088Z,100.00
2022-10-05T00:53:54.627Z,100.00
2022-10-05T00:55:31.493Z,100.00
2022-10-05T00:56:56.506Z,100.00
2022-10-05T00:58:17.105Z,100.00
2022-10-05T00:59:54.837Z,100.00
2022-10-05T01:01:14.262Z,100.00
2022-10-05T01:02:37.198Z,100.00
2022-10-05T01:03:55.651Z,100.00
2022-10-05T01:05:29.328Z,100.00
2022-10-05T01:06:39.711Z,100.00
2022-10-05T01:07:46.978Z,100.00
2022-10-05T01:08:58.019Z,100.00
2022-10-05T01:10:22.493Z,100.00
2022-10-05T01:11:34.831Z,100.00
2022-10-05T01:13:15.213Z,100.00
2022-10-05T01:14:32.339Z,100.00
2022-10-05T01:15:49.245Z,100.00
2022-10-05T01:16:59.248Z,100.00
2022-10-05T01:18:16.358Z,100.00
2022-10-05T01:19:47.246Z,100.00
2022-10-05T01:21:05.689Z,100.00
2022-10-05T01:22:07.049Z,100.00
2022-10-05T01:23:19.434Z,100.00
2022-10-05T01:24:45.192Z,100.00
2022-10-05T01:26:15.037Z,100.00
2022-10-05T01:28:00.972Z,100.00
2022-10-05T01:29:28.670Z,100.00
2022-10-05T01:30:41.495Z,100.00
2022-10-05T01:31:57.089Z,100.00
2022-10-05T01:33:13.916Z,100.00
2022-10-05T01:34:36.708Z,100.00
2022-10-05T01:36:07.498Z,100.00
2022-10-05T01:37:46.874Z,100.00
2022-10-05T01:39:01.460Z,100.00
2022-10-05T01:40:15.539Z,100.00
2022-10-05T01:41:41.638Z,100.00
2022-10-05T01:43:18.322Z,100.00
2022-10-05T01:44:28.800Z,100.00
2022-10-05T01:45:58.402Z,100.00
2022-10-05T01:47:29.035Z,100.00
2022-10-05T01:48:39.394Z,100.00
2022-10-05T01:49:51.609Z,100.00
2022-10-05T01:51:15.389Z,100.00
2022-10-05T01:52:52.776Z,100.00
2022-10-05T01:54:27.499Z,100.00
2022-10-05T01:55:45.066Z,100.00
2022-10-05T01:56:57.685Z,100.00
2022-10-05T01:58:20.981Z,100.00
2022-10-05T01:59:33.737Z,100.00
2022-10-05T02:00:54.404Z,100.00
2022-10-05T02:02:07.593Z,100.00
2022-10-05T02:03:24.699Z,100.00
2022-10-05T02:05:01.504Z,100.00
2022-10-05T02:06:15.527Z,100.00
2022-10-05T02:07:23.495Z,100.00
2022-10-05T02:08:31.509Z,100.00
2022-10-05T02:09:40.651Z,100.00
2022-10-05T02:10:48.032Z,100.00
2022-10-05T02:11:58.033Z,100.00
2022-10-05T02:13:10.000Z,100.00
2022-10-05T02:14:18.867Z,100.00
2022-10-05T02:15:27.239Z,100.00
2022-10-05T02:16:47.250Z,100.00
2022-10-05T02:17:53.137Z,100.00
2022-10-05T02:18:57.540Z,100.00
2022-10-05T02:20:03.604Z,100.00
2022-10-05T02:21:05.662Z,100.00
2022-10-05T02:22:11.212Z,100.00
2022-10-05T02:23:20.821Z,100.00
2022-10-05T02:24:28.325Z,100.00
2022-10-05T02:25:33.483Z,100.00
2022-10-05T02:26:37.135Z,100.00
2022-10-05T02:27:47.494Z,100.00
2022-10-05T02:28:59.870Z,100.00
2022-10-05T02:30:06.198Z,100.00
2022-10-05T02:31:19.445Z,100.00
2022-10-05T02:32:27.094Z,100.00
2022-10-05T02:33:30.920Z,100.00
2022-10-05T02:34:43.217Z,100.00
2022-10-05T02:36:00.173Z,100.00
2022-10-05T02:37:49.355Z,100.00
2022-10-05T02:39:13.514Z,100.00
2022-10-05T02:40:27.012Z,100.00
2022-10-05T02:41:42.571Z,100.00
2022-10-05T02:43:12.671Z,100.00
2022-10-05T02:44:29.103Z,100.00
2022-10-05T02:45:55.031Z,100.00
2022-10-05T02:47:04.823Z,100.00
2022-10-05T02:48:29.673Z,100.00
2022-10-05T02:49:50.417Z,100.00
2022-10-05T02:51:24.775Z,100.00
2022-10-05T02:52:35.797Z,100.00
2022-10-05T02:54:16.031Z,100.00
2022-10-05T02:55:22.586Z,100.00
2022-10-05T02:56:55.203Z,100.00
2022-10-05T02:58:04.507Z,100.00
2022-10-05T02:59:26.308Z,100.00
2022-10-05T03:00:34.743Z,100.00
2022-10-05T03:01:51.924Z,100.00
2022-10-05T03:03:07.243Z,100.00
2022-10-05T03:04:31.672Z,100.00
2022-10-05T03:05:37.485Z,100.00
2022-10-05T03:07:02.792Z,100.00
2022-10-05T03:08:46.087Z,100.00
2022-10-05T03:10:11.799Z,100.00
2022-10-05T03:11:22.121Z,100.00
2022-10-05T03:12:39.009Z,100.00
2022-10-05T03:13:48.384Z,100.00
2022-10-05T03:15:12.149Z,100.00
2022-10-05T03:16:25.463Z,100.00
2022-10-05T03:17:34.591Z,100.00
2022-10-05T03:19:13.746Z,100.00
2022-10-05T03:20:42.336Z,100.00
2022-10-05T03:21:51.510Z,100.00
2022-10-05T03:22:59.353Z,100.00
2022-10-05T03:24:35.215Z,100.00
2022-10-05T03:26:00.839Z,100.00
2022-10-05T03:27:08.893Z,100.00
2022-10-05T03:28:22.025Z,100.00
2022-10-05T03:29:35.391Z,100.00
2022-10-05T03:30:51.888Z,100.00
2022-10-05T03:32:24.998Z,100.00
2022-10-05T03:33:42.112Z,100.00
2022-10-05T03:34:52.616Z,100.00
2022-10-05T03:36:38.554Z,100.00
2022-10-05T03:37:47.554Z,100.00
2022-10-05T03:39:15.795Z,100.00
2022-10-05T03:40:38.387Z,100.00
2022-10-05T03:42:04.376Z,100.00
2022-10-05T03:43:47.477Z,100.00
2022-10-05T03:44:55.485Z,100.00
2022-10-05T03:46:06.177Z,100.00
2022-10-05T03:47:18.204Z,100.00
2022-10-05T03:49:11.783Z,100.00
2022-10-05T03:50:33.373Z,100.00
2022-10-05T03:51:38.163Z,100.00
2022-10-05T03:53:25.604Z,100.00
2022-10-05T03:54:32.648Z,100.00
2022-10-05T03:55:47.431Z,100.00
2022-10-05T03:56:57.027Z,100.00
2022-10-05T03:58:06.358Z,100.00
2022-10-05T03:59:20.214Z,100.00
2022-10-05T04:00:22.968Z,100.00
2022-10-05T04:01:39.162Z,100.00
2022-10-05T04:02:48.070Z,100.00
2022-10-05T04:03:58.386Z,100.00
2022-10-05T04:05:14.202Z,100.00
2022-10-05T04:06:21.917Z,100.00
2022-10-05T04:07:41.737Z,100.00
2022-10-05T04:09:12.519Z,100.00
2022-10-05T04:10:25.875Z,100.00
2022-10-05T04:11:46.685Z,100.00
2022-10-05T04:12:58.542Z,100.00
2022-10-05T04:14:30.431Z,100.00
2022-10-05T04:15:40.175Z,100.00
2022-10-05T04:16:47.400Z,100.00
2022-10-05T04:17:56.464Z,100.00
2022-10-05T04:19:04.033Z,100.00
2022-10-05T04:20:44.098Z,100.00
2022-10-05T04:21:51.875Z,100.00
2022-10-05T04:23:12.074Z,100.00
2022-10-05T04:24:18.201Z,100.00
2022-10-05T04:25:29.431Z,100.00
2022-10-05T04:26:45.827Z,100.00
2022-10-05T04:27:54.508Z,100.00
2022-10-05T04:29:04.763Z,100.00
2022-10-05T04:30:09.814Z,100.00
2022-10-05T04:31:16.978Z,100.00
2022-10-05T04:32:35.872Z,100.00
2022-10-05T04:33:37.749Z,100.00
2022-10-05T04:35:13.160Z,100.00
2022-10-05T04:36:29.827Z,100.00
2022-10-05T04:38:03.603Z,100.00
2022-10-05T04:39:29.157Z,100.00
2022-10-05T04:40:33.549Z,100.00
2022-10-05T04:41:59.883Z,100.00
2022-10-05T04:43:17.574Z,100.00
2022-10-05T04:44:28.042Z,100.00
2022-10-05T04:46:07.588Z,100.00
2022-10-05T04:47:16.515Z,100.00
2022-10-05T04:48:30.621Z,100.00
2022-10-05T04:50:07.687Z,100.00
2022-10-05T04:52:02.215Z,100.00
2022-10-05T04:53:09.661Z,100.00
2022-10-05T04:54:49.548Z,100.00
2022-10-05T04:55:57.990Z,100.00
2022-10-05T04:57:11.470Z,100.00
2022-10-05T04:58:43.021Z,100.00
2022-10-05T04:59:55.111Z,100.00
2022-10-05T05:01:18.276Z,100.00
2022-10-05T05:02:25.838Z,100.00
2022-10-05T05:03:48.768Z,100.00
2022-10-05T05:05:27.237Z,100.00
2022-10-05T05:07:03.601Z,100.00
2022-10-05T05:08:46.844Z,100.00
2022-10-05T05:10:25.042Z,100.00
2022-10-05T05:11:34.362Z,100.00
2022-10-05T05:12:59.126Z,100.00
2022-10-05T05:14:21.642Z,100.00
2022-10-05T05:15:51.371Z,100.00
2022-10-05T05:17:17.901Z,100.00
2022-10-05T05:18:37.906Z,100.00
2022-10-05T05:20:09.014Z,100.00
2022-10-05T05:21:35.083Z,100.00
2022-10-05T05:22:57.362Z,100.00
2022-10-05T05:24:14.875Z,100.00
2022-10-05T05:25:30.251Z,100.00
2022-10-05T05:26:54.359Z,100.00
2022-10-05T05:28:09.097Z,100.00
2022-10-05T05:29:19.279Z,100.00
2022-10-05T05:30:43.786Z,100.00
2022-10-05T05:31:50.691Z,100.00
2022-10-05T05:33:01.515Z,100.00
2022-10-05T05:34:41.263Z,100.00
2022-10-05T05:36:10.614Z,100.00
2022-10-05T05:37:31.777Z,100.00
2022-10-05T05:38:55.585Z,100.00
2022-10-05T05:40:06.157Z,100.00
2022-10-05T05:41:21.276Z,100.00
2022-10-05T05:42:43.841Z,100.00
2022-10-05T05:44:20.889Z,100.00
2022-10-05T05:45:39.074Z,100.00
2022-10-05T05:47:04.893Z,100.00
2022-10-05T05:48:36.508Z,100.00
2022-10-05T05:49:53.392Z,100.00
2022-10-05T05:51:08.923Z,100.00
2022-10-05T05:52:23.660Z,100.00
2022-10-05T05:53:31.885Z,100.00
2022-10-05T05:54:48.336Z,100.00
2022-10-05T05:55:58.886Z,100.00
2022-10-05T05:57:10.112Z,100.00
2022-10-05T05:58:42.284Z,100.00
2022-10-05T05:59:52.169Z,100.00
2022-10-05T06:01:05.826Z,100.00
2022-10-05T06:02:14.058Z,100.00
2022-10-05T06:03:32.915Z,100.00
2022-10-05T06:04:41.915Z,100.00
2022-10-05T06:05:54.349Z,100.00
2022-10-05T06:06:58.226Z,100.00
2022-10-05T06:08:20.255Z,100.00
2022-10-05T06:09:31.003Z,100.00
2022-10-05T06:11:01.385Z,100.00
2022-10-05T06:12:09.909Z,100.00
2022-10-05T06:13:19.268Z,100.00
2022-10-05T06:14:33.952Z,100.00
2022-10-05T06:15:53.781Z,100.00
2022-10-05T06:17:03.164Z,100.00
2022-10-05T06:18:11.876Z,100.00
2022-10-05T06:19:18.321Z,100.00
2022-10-05T06:20:38.429Z,100.00
2022-10-05T06:22:06.810Z,100.00
2022-10-05T06:23:23.518Z,100.00
2022-10-05T06:24:54.259Z,100.00
2022-10-05T06:26:46.893Z,100.00
2022-10-05T06:28:14.121Z,100.00
2022-10-05T06:29:24.408Z,100.00
2022-10-05T06:30:37.645Z,100.00
2022-10-05T06:31:49.200Z,100.00
2022-10-05T06:32:51.029Z,100.00
2022-10-05T06:34:24.994Z,100.00
2022-10-05T06:35:29.128Z,100.00
2022-10-05T06:36:51.248Z,100.00
2022-10-05T06:38:01.741Z,100.00
2022-10-05T06:39:23.041Z,100.00
2022-10-05T06:40:45.763Z,100.00
2022-10-05T06:42:08.054Z,100.00
2022-10-05T06:43:37.947Z,100.00
2022-10-05T06:45:25.313Z,99.60
2022-10-05T06:47:17.280Z,98.84
2022-10-05T06:49:29.111Z,100.00
2022-10-05T06:51:16.608Z,100.00
2022-10-05T06:53:18.761Z,100.00
2022-10-05T11:55:20.213Z,84.84
2022-10-05T11:57:42.385Z,84.48
2022-10-05T11:59:10.031Z,84.33
2022-10-05T12:00:23.861Z,84.10
2022-10-05T12:02:01.894Z,83.94
2022-10-05T12:03:45.116Z,85.72
2022-10-05T12:05:06.716Z,85.10
2022-10-05T12:06:26.047Z,85.45
2022-10-05T12:07:38.386Z,85.23
2022-10-05T12:09:10.442Z,84.00
2022-10-05T12:10:27.296Z,85.20
2022-10-05T12:12:22.825Z,85.32
2022-10-05T12:13:44.232Z,85.47
2022-10-05T12:14:59.016Z,83.85
2022-10-05T12:16:20.668Z,83.74
2022-10-05T12:17:52.309Z,83.19
2022-10-05T12:19:02.895Z,83.59
2022-10-05T12:20:17.065Z,85.05
2022-10-05T12:21:26.986Z,84.60
2022-10-05T12:22:43.903Z,84.73
2022-10-05T12:23:53.622Z,84.45
2022-10-05T12:25:05.027Z,84.29
2022-10-05T12:26:34.348Z,84.76
2022-10-05T12:27:43.302Z,86.42
2022-10-05T12:28:49.812Z,86.37
2022-10-05T12:30:00.879Z,86.49
2022-10-05T12:31:33.231Z,87.44
2022-10-05T12:33:05.132Z,87.36
2022-10-05T12:34:23.972Z,88.47
2022-10-05T12:35:49.238Z,88.85
2022-10-05T12:37:05.403Z,88.08
2022-10-05T12:38:34.866Z,87.89
2022-10-05T12:39:54.389Z,88.12
2022-10-05T12:41:17.233Z,88.52
2022-10-05T12:42:31.341Z,87.84
2022-10-05T12:43:58.074Z,87.54
2022-10-05T12:45:10.950Z,88.33
2022-10-05T12:46:27.060Z,87.96
2022-10-05T12:47:52.890Z,88.37
2022-10-05T12:49:12.660Z,89.74
2022-10-05T12:50:20.305Z,89.43
2022-10-05T12:51:46.465Z,90.04
2022-10-05T12:53:04.357Z,89.49
2022-10-05T12:54:22.226Z,88.69
2022-10-05T12:55:48.782Z,89.86
2022-10-05T12:57:08.843Z,89.59
2022-10-05T12:58:12.932Z,89.37
2022-10-05T12:59:36.875Z,88.59
2022-10-05T13:00:48.289Z,89.04
2022-10-05T13:02:05.044Z,89.52
2022-10-05T13:03:28.789Z,89.32
2022-10-05T13:04:41.062Z,89.16
2022-10-05T13:06:01.768Z,89.67
2022-10-05T13:07:04.042Z,90.88
2022-10-05T13:08:51.439Z,89.91
2022-10-05T13:10:17.573Z,89.31
2022-10-05T13:11:42.067Z,88.94
2022-10-05T13:13:14.767Z,88.59
2022-10-05T13:14:47.102Z,89.31
2022-10-05T13:15:57.512Z,89.00
2022-10-05T13:17:10.064Z,89.86
2022-10-05T13:18:52.375Z,89.29
2022-10-05T13:19:58.394Z,89.48
2022-10-05T13:21:31.203Z,90.00
2022-10-05T13:22:48.394Z,89.21
2022-10-05T13:23:57.765Z,89.52
2022-10-05T13:25:14.114Z,91.06
2022-10-05T13:26:20.628Z,91.07
2022-10-05T13:27:36.187Z,90.35
2022-10-05T13:28:44.705Z,90.29
2022-10-05T13:29:54.526Z,90.31
2022-10-05T13:31:28.608Z,90.72
2022-10-05T13:32:41.722Z,91.09
2022-10-05T13:34:03.033Z,91.86
2022-10-05T13:35:38.171Z,90.48
2022-10-05T13:36:51.660Z,92.50
2022-10-05T13:37:59.134Z,92.87
2022-10-05T13:39:19.189Z,90.63
2022-10-05T13:40:32.876Z,90.93
2022-10-05T13:42:03.322Z,90.91
2022-10-05T13:43:13.870Z,90.41
2022-10-05T13:44:32.321Z,90.52
2022-10-05T13:45:43.951Z,91.40
2022-10-05T13:46:49.511Z,90.86
2022-10-05T13:48:29.859Z,89.77
2022-10-05T13:49:49.652Z,90.86
2022-10-05T13:50:59.795Z,91.33
2022-10-05T13:52:04.196Z,90.50
2022-10-05T13:53:22.432Z,90.91
2022-10-05T13:54:36.504Z,91.36
2022-10-05T13:56:00.727Z,92.45
2022-10-05T13:57:17.484Z,90.45
2022-10-05T13:58:32.883Z,90.58
2022-10-05T13:59:43.832Z,91.07
2022-10-05T14:00:55.460Z,90.54
2022-10-05T14:02:05.636Z,89.68
2022-10-05T14:03:33.860Z,90.80
2022-10-05T14:04:57.435Z,90.41
2022-10-05T14:06:23.532Z,90.50
2022-10-05T14:07:45.534Z,90.67
2022-10-05T14:08:48.700Z,90.35
2022-10-05T14:09:50.286Z,90.70
2022-10-05T14:10:51.763Z,90.57
2022-10-05T14:12:05.228Z,90.15
2022-10-05T14:13:12.654Z,90.54
2022-10-05T14:14:17.193Z,88.99
2022-10-05T14:15:28.321Z,89.82
2022-10-05T14:16:31.583Z,90.69
2022-10-05T14:17:33.339Z,91.11
2022-10-05T14:18:37.588Z,91.77
2022-10-05T14:19:45.611Z,90.27
2022-10-05T14:21:17.137Z,90.84
2022-10-05T14:22:24.469Z,90.34
2022-10-05T14:23:27.103Z,90.05
2022-10-05T14:24:44.825Z,89.73
2022-10-05T14:25:49.728Z,91.17
2022-10-05T14:26:53.686Z,92.00
2022-10-05T14:28:01.222Z,89.79
2022-10-05T14:29:17.888Z,90.32
2022-10-05T14:30:22.984Z,91.30
2022-10-05T14:31:34.551Z,90.84
2022-10-05T14:33:05.123Z,91.22
2022-10-05T14:34:33.520Z,90.32
2022-10-05T14:35:52.744Z,90.55
2022-10-05T14:37:00.425Z,90.25
2022-10-05T14:38:16.227Z,90.46
2022-10-05T14:39:25.541Z,90.73
2022-10-05T14:40:37.654Z,89.88
2022-10-05T14:41:48.569Z,89.97
2022-10-05T14:42:50.584Z,90.77
2022-10-05T14:45:59.528Z,92.99
2022-10-05T14:47:20.101Z,90.90
2022-10-05T14:48:22.097Z,91.24
2022-10-05T14:49:27.011Z,90.74
2022-10-05T14:50:30.681Z,90.80
2022-10-05T14:51:32.523Z,92.02
2022-10-05T14:52:34.011Z,92.51
2022-10-05T14:53:55.908Z,92.70
2022-10-05T14:55:13.823Z,92.56
2022-10-05T14:56:33.363Z,92.68
2022-10-05T14:57:37.850Z,93.40
2022-10-05T14:59:12.439Z,94.08
2022-10-05T15:00:16.316Z,92.98
2022-10-05T15:01:23.439Z,93.87
2022-10-05T15:02:55.496Z,94.19
2022-10-05T15:04:39.745Z,94.20
2022-10-05T15:06:01.606Z,93.48
2022-10-05T15:07:38.744Z,92.41
2022-10-05T15:08:52.369Z,93.76
2022-10-05T15:10:14.038Z,93.96
2022-10-05T15:11:31.420Z,94.60
2022-10-05T15:12:41.873Z,95.07
2022-10-05T15:13:45.465Z,94.66
2022-10-05T15:14:46.909Z,94.14
2022-10-05T15:15:57.389Z,94.11
2022-10-05T15:17:04.594Z,93.91
2022-10-05T15:18:18.724Z,95.12
2022-10-05T15:19:27.241Z,94.91
2022-10-05T15:20:40.795Z,94.34
2022-10-05T15:22:07.136Z,94.66
2022-10-05T15:23:17.591Z,94.01
2022-10-05T15:24:22.285Z,94.67
2022-10-05T15:25:36.236Z,94.98
2022-10-05T15:27:00.184Z,95.25
2022-10-05T15:28:28.730Z,95.52
2022-10-05T15:29:51.981Z,95.22
2022-10-05T15:31:13.801Z,95.16
2022-10-05T15:32:43.373Z,95.27
2022-10-05T15:34:20.790Z,95.44
2022-10-05T15:35:36.328Z,96.56
2022-10-05T15:36:56.350Z,96.08
2022-10-05T15:38:08.339Z,96.41
2022-10-05T15:39:35.901Z,96.69
2022-10-05T15:40:40.666Z,96.21
2022-10-05T15:41:55.962Z,96.14
2022-10-05T15:43:09.985Z,96.58
2022-10-05T15:44:49.884Z,96.63
2022-10-05T15:46:03.861Z,97.14
2022-10-05T15:47:20.778Z,97.27
2022-10-05T15:48:28.486Z,97.75
2022-10-05T15:49:46.707Z,97.75
2022-10-05T15:51:29.976Z,98.10
2022-10-05T15:52:59.350Z,98.41
2022-10-05T15:54:21.845Z,98.95
2022-10-05T15:55:57.589Z,98.69
2022-10-05T15:57:10.774Z,98.86
2022-10-05T15:58:38.635Z,98.39
2022-10-05T16:00:15.004Z,98.29
2022-10-05T16:01:21.100Z,98.40
2022-10-05T16:02:29.397Z,98.43
2022-10-05T16:03:42.472Z,98.60
2022-10-05T16:04:46.702Z,98.83
2022-10-05T16:06:06.617Z,98.97
2022-10-05T16:07:18.513Z,98.71
2022-10-05T16:08:38.463Z,98.56
2022-10-05T16:09:56.629Z,98.56
2022-10-05T16:10:58.954Z,99.30
2022-10-05T16:12:20.067Z,99.18
2022-10-05T16:13:32.270Z,99.08
2022-10-05T16:14:59.777Z,98.91
2022-10-05T16:16:21.068Z,99.05
2022-10-05T16:17:48.042Z,99.12
2022-10-05T16:19:27.086Z,98.75
2022-10-05T16:20:33.278Z,99.23
2022-10-05T16:21:50.295Z,99.27
2022-10-05T16:23:23.506Z,98.95
2022-10-05T16:24:53.970Z,99.48
2022-10-05T16:26:34.486Z,99.36
2022-10-05T16:27:51.146Z,99.34
2022-10-05T16:29:26.870Z,99.04
2022-10-05T16:30:37.235Z,99.20
2022-10-05T16:32:02.642Z,99.25
2022-10-05T16:33:13.391Z,99.83
2022-10-05T16:34:24.881Z,100.00
2022-10-05T16:35:36.244Z,100.00
2022-10-05T16:36:56.299Z,100.00
2022-10-05T16:38:12.997Z,100.00
2022-10-05T16:39:35.932Z,100.00
2022-10-05T16:41:02.787Z,100.00
2022-10-05T16:42:16.283Z,100.00
2022-10-05T16:43:39.753Z,100.00
2022-10-05T16:45:23.328Z,100.00
2022-10-05T16:46:48.274Z,100.00
2022-10-05T16:48:02.783Z,100.00
2022-10-05T16:49:16.821Z,100.00
2022-10-05T16:50:33.560Z,100.00
2022-10-05T16:51:57.941Z,100.00
2022-10-05T16:53:09.899Z,100.00
2022-10-05T16:54:21.789Z,100.00
2022-10-05T16:55:32.837Z,100.00
2022-10-05T16:56:43.892Z,100.00
2022-10-05T16:57:49.124Z,100.00
2022-10-05T16:59:21.572Z,100.00
2022-10-05T17:00:35.188Z,100.00
2022-10-05T17:02:08.419Z,100.00
2022-10-05T17:03:45.571Z,100.00
2022-10-05T17:04:55.773Z,100.00
2022-10-05T17:06:16.028Z,100.00
2022-10-05T17:07:36.085Z,100.00
2022-10-05T17:08:52.036Z,100.00
2022-10-05T17:10:02.380Z,100.00
2022-10-05T17:11:31.300Z,100.00
2022-10-05T17:12:45.648Z,100.00
2022-10-05T17:14:06.298Z,100.00
2022-10-05T17:15:39.647Z,100.00
2022-10-05T17:16:57.731Z,100.00
2022-10-05T17:18:30.069Z,100.00
2022-10-05T17:19:40.568Z,100.00
2022-10-05T17:20:53.991Z,100.00
2022-10-05T17:22:02.559Z,100.00
2022-10-05T17:23:27.240Z,100.00
2022-10-05T17:24:49.959Z,100.00
2022-10-05T17:25:58.696Z,100.00
2022-10-05T17:27:21.983Z,100.00
2022-10-05T17:28:57.208Z,100.00
2022-10-05T17:30:47.302Z,100.00
2022-10-05T17:32:06.707Z,100.00
2022-10-05T17:33:20.548Z,100.00
2022-10-05T17:34:21.920Z,100.00
2022-10-05T17:35:42.046Z,100.00
2022-10-05T17:36:54.172Z,100.00
2022-10-05T17:38:16.677Z,100.00
2022-10-05T17:39:23.460Z,100.00
2022-10-05T17:40:38.824Z,100.00
2022-10-05T17:41:40.251Z,100.00
2022-10-05T17:42:41.628Z,100.00
2022-10-05T17:44:01.571Z,100.00
2022-10-05T17:45:11.987Z,100.00
2022-10-05T17:46:43.392Z,100.00
2022-10-05T17:48:10.484Z,100.00
2022-10-05T17:49:37.758Z,100.00
2022-10-05T17:50:44.774Z,100.00
2022-10-05T17:51:46.153Z,100.00
2022-10-05T17:53:07.464Z,100.00
2022-10-05T17:54:28.689Z,100.00
2022-10-05T17:55:32.790Z,100.00
2022-10-05T17:56:46.431Z,100.00
2022-10-05T17:57:47.935Z,100.00
2022-10-05T17:58:49.348Z,100.00
2022-10-05T17:59:53.706Z,100.00
2022-10-05T18:00:58.108Z,100.00
2022-10-05T18:02:21.263Z,100.00
2022-10-05T18:03:41.924Z,100.00
2022-10-05T18:04:51.339Z,100.00
2022-10-05T18:06:21.902Z,100.00
2022-10-05T18:07:24.685Z,100.00
2022-10-05T18:08:31.797Z,100.00
2022-10-05T18:09:36.301Z,100.00
2022-10-05T18:10:55.626Z,100.00
2022-10-05T18:12:24.643Z,100.00
2022-10-05T18:14:00.505Z,100.00
2022-10-05T18:15:14.635Z,100.00
2022-10-05T18:16:53.708Z,100.00
2022-10-05T18:17:57.446Z,100.00
2022-10-05T18:18:59.014Z,100.00
2022-10-05T18:20:15.689Z,100.00
2022-10-05T18:21:23.198Z,100.00
2022-10-05T18:22:24.616Z,100.00
2022-10-05T18:23:26.917Z,100.00
2022-10-05T18:24:37.372Z,100.00
2022-10-05T18:25:48.010Z,100.00
2022-10-05T18:27:06.967Z,100.00
2022-10-05T18:28:14.255Z,100.00
2022-10-05T18:29:39.282Z,100.00
2022-10-05T18:30:55.744Z,100.00
2022-10-05T18:32:03.275Z,100.00
2022-10-05T18:33:14.203Z,100.00
2022-10-05T18:34:35.774Z,100.00
2022-10-05T18:35:37.168Z,100.00
2022-10-05T18:36:58.812Z,100.00
2022-10-05T18:38:00.256Z,100.00
2022-10-05T18:39:17.272Z,100.00
2022-10-05T18:41:01.575Z,100.00
2022-10-05T18:42:18.297Z,100.00
2022-10-05T18:43:31.833Z,100.00
2022-10-05T18:44:40.139Z,100.00
2022-10-05T18:46:03.230Z,100.00
2022-10-05T18:47:24.581Z,100.00
2022-10-05T18:48:48.815Z,100.00
2022-10-05T18:50:13.105Z,100.00
2022-10-05T18:51:46.318Z,100.00
2022-10-05T18:53:14.476Z,100.00
2022-10-05T18:54:29.520Z,100.00
2022-10-05T18:55:37.883Z,100.00
2022-10-05T18:56:39.300Z,100.00
2022-10-05T18:57:50.307Z,100.00
2022-10-05T18:58:56.575Z,100.00
2022-10-05T19:00:03.924Z,100.00
2022-10-05T19:01:08.123Z,100.00
2022-10-05T19:02:34.325Z,100.00
2022-10-05T19:03:50.990Z,100.00
2022-10-05T19:05:48.997Z,100.00
2022-10-05T19:07:12.855Z,100.00
2022-10-05T19:08:45.840Z,100.00
2022-10-05T19:10:03.083Z,100.00
2022-10-05T19:11:36.427Z,100.00
2022-10-05T19:12:58.898Z,100.00
2022-10-05T19:14:21.189Z,100.00
2022-10-05T19:15:39.426Z,100.00
2022-10-05T19:16:43.660Z,100.00
2022-10-05T19:17:51.355Z,100.00
2022-10-05T19:19:06.464Z,100.00
2022-10-05T19:20:22.438Z,100.00
2022-10-05T19:21:40.402Z,100.00
2022-10-05T19:23:13.909Z,100.00
2022-10-05T19:24:43.649Z,100.00
2022-10-05T19:26:22.904Z,100.00
2022-10-05T19:27:54.532Z,100.00
2022-10-05T19:28:59.871Z,100.00
2022-10-05T19:30:19.805Z,100.00
2022-10-05T19:31:33.766Z,100.00
2022-10-05T19:32:43.962Z,100.00
2022-10-05T19:34:22.818Z,100.00
2022-10-05T19:36:03.451Z,100.00
2022-10-05T19:37:13.399Z,100.00
2022-10-05T19:38:41.340Z,100.00
2022-10-05T19:40:04.543Z,100.00
2022-10-05T19:41:20.647Z,100.00
2022-10-05T19:42:55.893Z,100.00
2022-10-05T19:44:24.952Z,100.00
2022-10-05T19:45:28.907Z,100.00
2022-10-05T19:46:43.005Z,100.00
2022-10-05T19:48:12.826Z,100.00
2022-10-05T19:49:42.098Z,100.00
2022-10-05T19:50:58.884Z,100.00
2022-10-05T19:52:00.419Z,100.00
2022-10-05T19:53:11.586Z,100.00
2022-10-05T19:54:24.863Z,100.00
2022-10-05T19:55:34.632Z,100.00
2022-10-05T19:56:47.319Z,100.00
2022-10-05T19:57:58.259Z,100.00
2022-10-05T19:59:11.958Z,100.00
2022-10-05T20:00:25.857Z,100.00
2022-10-05T20:01:32.453Z,100.00
2022-10-05T20:02:36.533Z,100.00
2022-10-05T20:03:47.767Z,100.00
2022-10-05T20:04:49.181Z,100.00
2022-10-05T20:05:50.503Z,100.00
2022-10-05T20:06:51.907Z,100.00
2022-10-05T20:07:53.234Z,100.00
2022-10-05T20:08:56.635Z,100.00
2022-10-05T20:10:14.588Z,100.00
2022-10-05T20:11:17.485Z,100.00
2022-10-05T20:12:19.220Z,100.00
2022-10-05T20:13:22.667Z,100.00
2022-10-05T20:14:32.506Z,100.00
2022-10-05T20:15:36.043Z,100.00
2022-10-05T20:16:37.572Z,100.00
2022-10-05T20:17:39.092Z,100.00
2022-10-05T20:18:49.517Z,100.00
2022-10-05T20:19:50.962Z,100.00
2022-10-05T20:20:52.443Z,100.00
2022-10-05T20:21:55.467Z,100.00
2022-10-05T20:23:23.648Z,100.00
2022-10-05T20:24:26.511Z,100.00
2022-10-05T20:25:30.071Z,100.00
2022-10-05T20:26:42.174Z,100.00
2022-10-05T20:27:51.346Z,100.00
2022-10-05T20:28:52.776Z,100.00
2022-10-05T20:29:54.103Z,100.00
2022-10-05T20:30:55.616Z,100.00
2022-10-05T20:31:57.910Z,100.00
2022-10-05T20:32:59.955Z,100.00
2022-10-05T20:34:01.406Z,100.00
2022-10-05T20:35:02.899Z,100.00
2022-10-05T20:36:04.446Z,100.00
2022-10-05T20:37:05.898Z,100.00
2022-10-05T20:38:07.218Z,100.00
2022-10-05T20:39:08.728Z,100.00
2022-10-05T20:40:11.169Z,100.00
2022-10-05T20:41:12.584Z,100.00
2022-10-05T20:42:13.924Z,100.00
2022-10-05T20:43:15.397Z,100.00
2022-10-05T20:44:16.851Z,100.00
2022-10-05T20:45:18.263Z,100.00
2022-10-05T20:46:19.641Z,100.00
2022-10-05T20:47:21.056Z,100.00
2022-10-05T20:48:22.497Z,100.00
2022-10-05T20:49:27.228Z,100.00
2022-10-05T20:50:28.665Z,100.00
2022-10-05T20:51:30.043Z,100.00
2022-10-05T20:52:31.697Z,100.00
2022-10-05T20:53:33.128Z,100.00
2022-10-05T20:54:34.583Z,100.00
2022-10-05T20:55:36.059Z,100.00
2022-10-05T20:56:37.467Z,100.00
2022-10-05T20:57:38.803Z,100.00
2022-10-05T20:58:40.212Z,100.00
2022-10-05T20:59:41.547Z,100.00
2022-10-05T21:00:43.030Z,100.00
2022-10-05T21:01:45.131Z,100.00
2022-10-05T21:02:46.569Z,100.00
2022-10-05T21:03:47.917Z,100.00
2022-10-05T21:04:49.497Z,100.00
2022-10-05T21:05:50.957Z,100.00
2022-10-05T21:06:52.760Z,100.00
2022-10-05T21:07:54.213Z,100.00